createdAt,value
2023-01-26T00:02:44.068Z,0.00
2023-01-26T00:06:49.666Z,0.00
2023-01-26T00:10:55.881Z,0.00
2023-01-26T00:15:01.344Z,0.10
2023-01-26T00:19:06.845Z,0.10
2023-01-26T00:23:12.327Z,0.10
2023-01-26T00:27:18.137Z,0.10
2023-01-26T00:31:26.918Z,0.00
2023-01-26T00:35:32.437Z,0.10
2023-01-26T00:39:37.897Z,0.10
2023-01-26T00:43:43.347Z,0.10
2023-01-26T00:47:49.042Z,0.10
2023-01-26T00:51:54.507Z,0.10
2023-01-26T00:55:59.977Z,0.10
2023-01-26T01:00:06.772Z,0.10
2023-01-26T01:04:12.273Z,0.10
2023-01-26T01:08:17.871Z,0.10
2023-01-26T01:12:23.350Z,0.10
2023-01-26T01:16:29.213Z,0.20
2023-01-26T01:20:34.709Z,0.20
2023-01-26T01:24:40.260Z,0.20
2023-01-26T01:28:45.941Z,0.20
2023-01-26T01:32:52.253Z,0.20
2023-01-26T01:36:57.744Z,0.20
2023-01-26T01:41:03.692Z,0.20
2023-01-26T01:45:27.339Z,0.20
2023-01-26T01:49:39.365Z,0.20
2023-01-26T01:53:51.108Z,0.20
2023-01-26T01:58:00.277Z,0.30
2023-01-26T02:02:05.865Z,0.30
2023-01-26T02:06:16.873Z,0.30
2023-01-26T02:10:23.145Z,0.30
2023-01-26T02:14:29.533Z,0.30
2023-01-26T02:18:35.040Z,0.30
2023-01-26T02:23:00.388Z,0.30
2023-01-26T02:27:06.609Z,0.30
2023-01-26T02:31:13.176Z,0.30
2023-01-26T02:35:18.779Z,0.30
2023-01-26T02:39:50.277Z,0.30
2023-01-26T02:43:55.743Z,0.30
2023-01-26T02:48:04.789Z,0.30
2023-01-26T02:52:10.335Z,0.30
2023-01-26T02:56:15.805Z,0.30
2023-01-26T03:00:30.617Z,0.30
2023-01-26T03:04:36.151Z,0.40
2023-01-26T03:08:41.976Z,0.40
2023-01-26T03:12:47.558Z,0.30
2023-01-26T03:16:53.105Z,0.40
2023-01-26T03:21:20.123Z,0.40
2023-01-26T03:25:44.072Z,0.40
2023-01-26T03:29:49.600Z,0.40
2023-01-26T03:33:55.076Z,0.40
2023-01-26T03:38:00.541Z,0.40
2023-01-26T03:42:24.672Z,0.40
2023-01-26T03:46:48.455Z,0.40
2023-01-26T03:51:12.411Z,0.40
2023-01-26T03:55:36.443Z,0.40
2023-01-26T03:59:42.372Z,0.40
2023-01-26T04:04:08.956Z,0.40
2023-01-26T04:08:23.798Z,0.40
2023-01-26T04:12:29.312Z,0.40
2023-01-26T04:16:53.179Z,0.40
2023-01-26T04:21:17.063Z,0.50
2023-01-26T04:25:22.855Z,0.50
2023-01-26T04:29:28.444Z,0.50
2023-01-26T04:33:33.889Z,0.50
2023-01-26T04:37:40.189Z,0.50
2023-01-26T04:41:46.542Z,0.50
2023-01-26T04:46:00.413Z,0.50
2023-01-26T04:50:06.380Z,0.50
2023-01-26T04:54:11.872Z,0.50
2023-01-26T04:58:17.522Z,0.60
2023-01-26T05:02:23.002Z,0.60
2023-01-26T05:06:28.793Z,0.60
2023-01-26T05:10:34.261Z,0.60
2023-01-26T05:14:39.784Z,0.80
2023-01-26T05:18:45.322Z,0.70
2023-01-26T05:22:50.768Z,0.70
2023-01-26T05:27:16.204Z,0.70
2023-01-26T05:31:21.719Z,0.70
2023-01-26T05:35:27.168Z,0.70
2023-01-26T05:39:32.629Z,0.70
2023-01-26T05:43:38.105Z,0.70
2023-01-26T05:47:45.349Z,0.70
2023-01-26T05:51:50.797Z,0.80
2023-01-26T05:55:56.349Z,1.00
2023-01-26T06:00:02.717Z,0.90
2023-01-26T06:04:08.373Z,0.90
2023-01-26T06:08:13.833Z,0.80
2023-01-26T06:12:21.610Z,0.80
2023-01-26T06:16:27.232Z,0.80
2023-01-26T06:20:32.733Z,0.80
2023-01-26T06:24:38.241Z,0.80
2023-01-26T06:28:43.717Z,0.80
2023-01-26T06:32:49.208Z,0.80
2023-01-26T06:36:54.795Z,0.80
2023-01-26T06:41:06.801Z,0.90
2023-01-26T06:45:12.267Z,0.90
2023-01-26T06:49:17.779Z,0.90
2023-01-26T06:53:38.658Z,0.80
2023-01-26T06:57:44.247Z,0.90
2023-01-26T07:01:50.066Z,0.90
2023-01-26T07:05:55.538Z,0.90
2023-01-26T07:10:01.085Z,0.80
2023-01-26T07:14:06.687Z,0.90
2023-01-26T07:18:12.276Z,0.90
2023-01-26T07:22:17.783Z,0.90
2023-01-26T07:26:23.637Z,0.90
2023-01-26T07:30:29.138Z,0.90
2023-01-26T07:34:34.642Z,1.00
2023-01-26T07:38:40.418Z,1.00
2023-01-26T07:42:46.468Z,1.00
2023-01-26T07:46:53.692Z,1.00
2023-01-26T07:51:03.739Z,1.10
2023-01-26T07:55:09.408Z,1.00
2023-01-26T07:59:14.875Z,1.10
2023-01-26T08:03:20.330Z,1.00
2023-01-26T08:07:26.130Z,1.10
2023-01-26T08:11:31.628Z,1.10
2023-01-26T08:15:37.132Z,1.10
2023-01-26T08:19:42.701Z,1.10
2023-01-26T08:23:51.997Z,1.10
2023-01-26T08:28:00.697Z,1.20
2023-01-26T08:32:06.630Z,1.20
2023-01-26T08:36:15.337Z,1.20
2023-01-26T08:40:20.956Z,1.20
2023-01-26T08:44:26.483Z,1.20
2023-01-26T08:48:32.088Z,1.20
2023-01-26T08:52:37.570Z,1.30
2023-01-26T08:56:43.057Z,1.20
2023-01-26T09:00:49.155Z,1.30
2023-01-26T09:04:54.724Z,1.30
2023-01-26T09:09:00.243Z,1.30
2023-01-26T09:13:06.342Z,1.30
2023-01-26T09:17:11.807Z,1.30
2023-01-26T09:21:17.611Z,1.30
2023-01-26T09:25:23.121Z,1.40
2023-01-26T09:29:28.667Z,1.40
2023-01-26T09:33:34.991Z,1.40
2023-01-26T09:37:40.538Z,1.50
2023-01-26T09:42:16.804Z,1.40
2023-01-26T09:46:26.227Z,1.50
2023-01-26T09:50:43.015Z,1.50
2023-01-26T09:54:53.587Z,1.60
2023-01-26T09:59:13.698Z,1.60
2023-01-26T10:03:48.137Z,1.60
2023-01-26T10:07:53.693Z,1.70
2023-01-26T10:12:07.092Z,1.60
2023-01-26T10:16:13.940Z,1.70
2023-01-26T10:20:33.126Z,1.70
2023-01-26T10:24:39.772Z,1.70
2023-01-26T10:28:48.523Z,1.80
2023-01-26T10:32:54.041Z,1.80
2023-01-26T10:37:15.318Z,1.80
2023-01-26T10:41:26.073Z,1.80
2023-01-26T10:45:33.686Z,1.90
2023-01-26T10:49:39.216Z,1.90
2023-01-26T10:53:44.676Z,2.00
2023-01-26T10:57:50.389Z,2.10
2023-01-26T11:02:12.231Z,2.10
2023-01-26T11:06:18.592Z,2.10
2023-01-26T11:10:37.302Z,2.10
2023-01-26T11:15:00.467Z,2.20
2023-01-26T11:19:21.034Z,2.20
2023-01-26T11:23:29.357Z,2.20
2023-01-26T11:28:09.759Z,2.20
2023-01-26T11:32:55.835Z,2.20
2023-01-26T11:37:33.839Z,2.30
2023-01-26T11:42:01.251Z,2.30
2023-01-26T11:46:28.597Z,2.30
2023-01-26T11:50:47.055Z,2.30
2023-01-26T11:55:19.156Z,2.30
2023-01-26T11:59:34.468Z,2.40
2023-01-26T12:03:47.091Z,2.40
2023-01-26T12:08:03.905Z,2.40
2023-01-26T12:12:45.931Z,2.40
2023-01-26T12:17:18.538Z,2.50
2023-01-26T12:21:24.612Z,2.50
2023-01-26T12:25:45.518Z,2.60
2023-01-26T12:30:27.598Z,2.60
2023-01-26T12:34:33.994Z,2.70
2023-01-26T12:39:00.432Z,2.70
2023-01-26T12:44:03.552Z,2.70
2023-01-26T12:48:20.414Z,2.80
2023-01-26T12:52:54.894Z,2.80
2023-01-26T12:57:05.026Z,2.80
2023-01-26T13:01:13.038Z,2.80
2023-01-26T13:05:36.245Z,2.90
2023-01-26T13:10:08.641Z,2.90
2023-01-26T13:14:49.746Z,2.90
2023-01-26T13:18:57.797Z,3.00
2023-01-26T13:23:03.294Z,3.00
2023-01-26T13:27:38.839Z,3.00
2023-01-26T13:31:44.504Z,3.00
2023-01-26T13:35:53.889Z,3.10
2023-01-26T13:40:05.721Z,3.10
2023-01-26T13:44:21.850Z,3.10
2023-01-26T13:48:50.148Z,3.20
2023-01-26T13:52:55.974Z,3.20
2023-01-26T13:57:06.379Z,3.30
2023-01-26T14:01:17.301Z,3.30
2023-01-26T14:05:23.236Z,3.30
2023-01-26T14:09:32.205Z,3.40
2023-01-26T14:13:39.049Z,3.40
2023-01-26T14:17:53.067Z,3.40
2023-01-26T14:22:00.982Z,3.40
2023-01-26T14:26:29.711Z,3.50
2023-01-26T14:30:35.883Z,3.50
2023-01-26T14:34:56.781Z,3.60
2023-01-26T14:39:02.362Z,3.60
2023-01-26T14:43:10.459Z,3.60
2023-01-26T14:47:28.347Z,3.70
2023-01-26T14:51:34.973Z,3.70
2023-01-26T14:55:44.631Z,3.70
2023-01-26T14:59:59.740Z,3.80
2023-01-26T15:04:35.522Z,3.80
2023-01-26T15:08:53.648Z,3.80
2023-01-26T15:13:15.648Z,3.90
2023-01-26T15:17:40.048Z,3.90
2023-01-26T15:21:47.318Z,3.90
2023-01-26T15:26:07.609Z,3.90
2023-01-26T15:30:18.286Z,3.90
2023-01-26T15:34:42.482Z,3.90
2023-01-26T15:38:48.269Z,4.00
2023-01-26T15:43:15.844Z,4.00
2023-01-26T15:47:21.315Z,4.00
2023-01-26T15:51:26.862Z,4.00
2023-01-26T15:55:33.566Z,4.00
2023-01-26T15:59:40.442Z,4.00
2023-01-26T16:03:45.933Z,4.00
2023-01-26T16:07:52.643Z,4.10
2023-01-26T16:11:58.244Z,4.00
2023-01-26T16:16:03.826Z,4.10
2023-01-26T16:20:11.599Z,4.10
2023-01-26T16:24:17.026Z,4.40
2023-01-26T16:28:22.841Z,4.30
2023-01-26T16:32:29.471Z,4.20
2023-01-26T16:36:34.943Z,4.20
2023-01-26T16:40:46.628Z,4.20
2023-01-26T16:44:52.125Z,4.20
2023-01-26T16:48:57.697Z,4.20
2023-01-26T16:53:23.221Z,4.20
2023-01-26T16:57:28.670Z,4.20
2023-01-26T17:01:37.732Z,4.20
2023-01-26T17:05:43.325Z,4.20
2023-01-26T17:09:48.833Z,4.20
2023-01-26T17:13:56.105Z,4.20
2023-01-26T17:18:01.571Z,4.20
2023-01-26T17:22:07.657Z,4.20
2023-01-26T17:26:16.887Z,4.20
2023-01-26T17:30:22.967Z,4.20
2023-01-26T17:34:28.874Z,4.20
2023-01-26T17:38:34.526Z,4.20
2023-01-26T17:42:40.118Z,4.20
2023-01-26T17:46:45.767Z,4.30
2023-01-26T17:50:51.458Z,4.30
2023-01-26T17:54:56.995Z,4.30
2023-01-26T17:59:02.486Z,4.30
2023-01-26T18:03:09.456Z,4.30
2023-01-26T18:07:14.946Z,4.40
2023-01-26T18:11:21.670Z,4.40
2023-01-26T18:15:27.214Z,4.40
2023-01-26T18:19:32.716Z,4.50
2023-01-26T18:23:38.305Z,4.50
2023-01-26T18:27:43.776Z,4.50
2023-01-26T18:31:49.517Z,4.50
2023-01-26T18:36:07.225Z,4.60
2023-01-26T18:40:15.158Z,4.60
2023-01-26T18:44:22.651Z,4.60
2023-01-26T18:48:29.717Z,4.60
2023-01-26T18:52:35.141Z,4.60
2023-01-26T18:56:41.144Z,4.60
2023-01-26T19:00:46.633Z,4.70
2023-01-26T19:04:53.665Z,4.70
2023-01-26T19:09:05.872Z,4.70
2023-01-26T19:13:11.638Z,4.80
2023-01-26T19:17:18.138Z,4.70
2023-01-26T19:21:27.503Z,4.70
2023-01-26T19:25:37.533Z,4.80
2023-01-26T19:29:42.993Z,4.80
2023-01-26T19:34:00.219Z,4.70
2023-01-26T19:38:06.305Z,4.70
2023-01-26T19:42:11.768Z,4.70
2023-01-26T19:46:18.395Z,4.70
2023-01-26T19:50:23.851Z,4.70
2023-01-26T19:54:29.287Z,4.70
2023-01-26T19:58:35.587Z,4.80
2023-01-26T20:02:41.064Z,4.80
2023-01-26T20:06:48.983Z,4.80
2023-01-26T20:10:54.486Z,4.80
2023-01-26T20:15:00.765Z,4.80
2023-01-26T20:19:06.548Z,4.80
2023-01-26T20:23:12.037Z,4.80
2023-01-26T20:27:17.628Z,4.90
2023-01-26T20:31:24.937Z,4.90
2023-01-26T20:35:31.192Z,4.90
2023-01-26T20:39:36.891Z,5.00
2023-01-26T20:43:58.178Z,5.00
2023-01-26T20:48:04.720Z,5.00
2023-01-26T20:52:10.367Z,5.00
2023-01-26T20:56:17.732Z,5.00
2023-01-26T21:00:23.390Z,5.00
2023-01-26T21:04:30.812Z,5.00
2023-01-26T21:08:37.407Z,5.00
2023-01-26T21:12:42.884Z,5.10
2023-01-26T21:16:48.369Z,5.00
2023-01-26T21:21:00.713Z,5.10
2023-01-26T21:25:06.738Z,5.10
2023-01-26T21:29:15.473Z,5.10
2023-01-26T21:33:21.042Z,5.20
2023-01-26T21:37:26.504Z,5.10
2023-01-26T21:41:52.329Z,5.10
2023-01-26T21:45:58.941Z,5.10
2023-01-26T21:50:04.976Z,5.10
2023-01-26T21:54:11.481Z,5.10
2023-01-26T21:58:35.249Z,5.10
2023-01-26T22:02:40.703Z,5.10
2023-01-26T22:06:46.175Z,5.10
2023-01-26T22:10:55.817Z,5.10
2023-01-26T22:15:01.258Z,5.10
2023-01-26T22:19:06.849Z,5.20
2023-01-26T22:23:12.301Z,5.20
2023-01-26T22:27:17.719Z,5.20
2023-01-26T22:31:27.415Z,5.20
2023-01-26T22:35:33.371Z,5.20
2023-01-26T22:39:39.060Z,5.20
2023-01-26T22:43:44.497Z,5.20
2023-01-26T22:47:50.389Z,5.10
2023-01-26T22:51:56.188Z,5.10
2023-01-26T22:56:01.944Z,5.20
2023-01-26T23:00:08.624Z,5.10
2023-01-26T23:04:15.298Z,5.10
2023-01-26T23:08:20.775Z,5.10
2023-01-26T23:12:26.266Z,5.10
2023-01-26T23:16:31.797Z,5.10
2023-01-26T23:20:37.346Z,5.10
2023-01-26T23:25:02.816Z,5.10
2023-01-26T23:29:08.322Z,5.10
2023-01-26T23:33:14.518Z,5.10
2023-01-26T23:37:19.975Z,5.10
2023-01-26T23:41:25.446Z,5.10
2023-01-26T23:45:31.321Z,5.10
2023-01-26T23:49:36.756Z,5.10
2023-01-26T23:53:42.245Z,5.10
2023-01-26T23:57:47.718Z,5.20
